Sonic Adventure (DX): Boss Rankings

Records: Times | Rings | Scores | Races | Bosses | Freestyle
Leaders: Times | Rings | Scores | Races | Bosses | Freestyle | Overall
Rank Player Percent Points Date
1 Sonicspeedruner 97.7% 52 10-31-18
2 Gamepro011 96.2% 86 10-31-18
3 chainchumper 94.1% 134 10-31-18
4 DarkPolarNight 93.6% 144 10-31-18
5 Austinf 91.4% 195 10-31-18
6 Jawzun 88.5% 261 10-31-18
7 drminus 88.2% 268 10-31-18
8 ethmar 86.6% 305 10-31-18
9 Parax 86.1% 316 10-31-18
10 ike6252 85.4% 332 10-31-18
11 Coolfansonic 83.8% 368 10-31-18
12 Dashjump 83.5% 376 10-31-18
13 Avento128bits 83.2% 382 10-31-18
14 DarkspinesSonic 79.5% 467 10-31-18
15 TheRealShadnic 77.9% 503 10-31-18
16 THC98 77.4% 515 10-31-18
17 F-Man 75.5% 557 10-31-18
18 Marth 74.5% 581 10-31-18
19 Mariobutch 73.1% 612 10-31-18
20 yoshifan 72.6% 625 10-31-18
21 InferSaime 71.8% 643 10-31-18
22 PfoSonic 71.2% 657 10-31-18
23 HyperSonic7701 69.3% 700 10-31-18
24 RPGnutter 68.4% 721 10-31-18
25 Paragod 66.9% 755 10-31-18
26 Dekuboy 66.6% 762 10-31-18
27 mike89 66.5% 763 10-31-18
28 frankoredstrato 66.1% 773 10-31-18
29 sonicam 62.1% 863 10-31-18
30 Groudon199 61.8% 870 10-31-18
31 SadisticMystic 61.5% 877 10-31-18
32 Stefan 60.4% 902 10-31-18
33 Diamond 58.8% 938 10-31-18
34 Combo 56.9% 983 10-31-18
35 bertin 56.6% 990 10-31-18
36 SkyLights 54.0% 1049 10-31-18
37 xXMegaManXx 53.6% 1057 10-31-18
38 Arch 48.3% 1178 10-31-18
39 Fr3nZy 48.2% 1181 10-31-18
40 francisco 48.0% 1186 10-31-18
41 Andrea Ritsu 46.1% 1228 10-31-18
42 OmegaDJ 46.0% 1232 10-31-18
43 Omega Rafael Santos 45.0% 1254 10-31-18
44 P1 Pause 43.6% 1286 10-31-18
45 magnum12 41.3% 1339 10-31-18
46 VeritasDL 41.0% 1345 10-31-18
47 Cyan Ryan 39.3% 1383 10-31-18
48 Niczur 39.2% 1387 10-31-18
49 Auriman1 37.6% 1423 10-31-18
50 James_Bertolli 35.5% 1471 10-31-18
51 chaos shadow 35.4% 1472 10-31-18
52 Hunters13 34.2% 1500 10-31-18
53 Psymar 33.9% 1507 10-31-18
54 teamblackarms 33.7% 1511 10-31-18
55 FuzZerd 33.1% 1525 10-31-18
56 Drakodan 32.6% 1537 10-31-18
57 Quartz 31.6% 1560 10-31-18
58 eggFL 31.2% 1569 10-31-18
59 CoEmpathy 31.1% 1572 10-31-18
60 GerbilSoft 30.7% 1580 10-31-18
61 Jerzia 30.5% 1584 10-31-18
62 BigAL49 30.4% 1588 10-31-18
63 elecmouse101 30.0% 1596 10-31-18
64 Webber3000 29.7% 1604 10-31-18
65 Thorn 29.6% 1605 10-31-18
66 videogamemaster777 29.2% 1614 10-31-18
67 Nim 29.1% 1616 10-31-18
68 Mo Player Banned 28.0% 1643 10-31-18
69 Turbos 27.8% 1647 10-31-18
70 Termon 26.7% 1671 10-31-18
71 Dave Cramer 26.0% 1688 10-31-18
72 Flying Fox 25.4% 1702 10-31-18
73 nuckrieg 24.9% 1713 10-31-18
74 buddychaos0415 24.4% 1723 10-31-18
75 Shadow Jacky 23.6% 1743 10-31-18
76 Cream147 21.0% 1801 10-31-18
76 N 21.0% 1801 10-31-18
76 supersonicfan 21.0% 1801 10-31-18
79 Zurggriff 21.0% 1802 10-31-18
80 MiStEr_ShAoLiN 20.7% 1808 10-31-18
81 NintenDan 20.6% 1810 10-31-18
82 Aitamen 20.3% 1817 10-31-18
83 thewaytodawnnn 20.2% 1819 10-31-18
84 itsPersonnal 20.0% 1825 10-31-18
85 The T 19.8% 1828 10-31-18
86 supersonic465 19.8% 1830 10-31-18
87 Cybrax 19.7% 1831 10-31-18
88 SonicWinDX 19.3% 1840 10-31-18
89 Cruizer 18.6% 1857 10-31-18
90 VMU Player Banned 17.2% 1888 10-31-18
91 Game_Complete 17.0% 1892 10-31-18
92 Mastakirby 16.4% 1906 10-31-18
92 The Great Lord Mick 16.4% 1906 10-31-18
94 GreatStar 15.6% 1925 10-31-18
95 Questionguy555 15.5% 1927 10-31-18
96 Spinballwizard 15.2% 1935 10-31-18
97 Sondow 14.3% 1955 10-31-18
98 Destroyer121121 14.1% 1960 10-31-18
99 sonicandamy Player Banned 13.9% 1964 10-31-18
100 R3FR4G 13.2% 1980 10-31-18
101 GarnetPrincess 13.1% 1982 10-31-18
102 SonicAD 11.8% 2011 10-31-18
103 Don 11.1% 2027 10-31-18
104 Miles9999 10.8% 2034 10-31-18
104 Siavash Tazari 10.8% 2034 10-31-18
106 SuperBlitzCraig 10.7% 2036 10-31-18
107 Cutiefox 10.2% 2049 10-31-18
108 Psyknux 9.9% 2055 10-31-18
109 knuckles_sonic8 9.7% 2060 10-31-18
110 Werey 9.5% 2065 10-31-18
111 joecoolgames 9.3% 2068 10-31-18
112 mauserman 9.0% 2075 10-31-18
113 EngiNerd 8.9% 2078 10-31-18
114 Sonic Singularity 8.8% 2079 10-31-18
115 Badlex727 8.8% 2080 10-31-18
116 dShadow 8.1% 2096 10-31-18
116 Hipertails12 8.1% 2096 10-31-18
118 Shanekilz 7.9% 2101 10-31-18
119 Aiko 7.8% 2102 10-31-18
120 Therio 7.4% 2111 10-31-18
121 ArthurVGCP 7.2% 2117 10-31-18
122 Calfd 6.9% 2124 10-31-18
123 TommyeAsY 6.8% 2126 10-31-18
124 FocusSight64 6.7% 2128 10-31-18
125 sonic29887 6.6% 2130 10-31-18
125 TheChaosEmeraIds 6.6% 2130 10-31-18
127 Chao_Fan 6.4% 2135 10-31-18
128 djmat 6.0% 2144 10-31-18
129 HHNNBBHHN 5.7% 2150 10-31-18
130 tal39h 5.7% 2151 10-31-18
131 paulie9990 5.6% 2153 10-31-18
131 Sogeking 5.6% 2153 10-31-18
133 ModifiedMonkee 5.3% 2161 10-31-18
134 Brian_pso 4.9% 2170 10-31-18
135 Chawkk 4.8% 2172 10-31-18
136 SpinDashMaster 4.6% 2177 10-31-18
137 MK 4.5% 2178 10-31-18
138 SilvertheAlmighty 4.4% 2180 10-31-18
139 Crispian 4.2% 2186 10-31-18
140 MastaToken 4.0% 2189 10-31-18
141 SpiritDragon1995 3.8% 2194 10-31-18
142 Sonique Hedgehog 3.7% 2196 10-31-18
143 KinkyCadence 3.5% 2202 10-31-18
143 PsyBorg 3.5% 2202 10-31-18
145 Mad Andy 3.3% 2205 10-31-18
146 FSSRandomvids 3.3% 2206 10-31-18
147 koinu93 2.9% 2215 10-31-18
147 Rolken 2.9% 2215 10-31-18
149 JamminX42 2.7% 2219 10-31-18
149 Xia 2.7% 2219 10-31-18
151 andres430 2.5% 2224 10-31-18
152 shadowblast63 Player Banned 2.2% 2230 10-31-18
153 dabestgamer 2.1% 2232 10-31-18
154 crazy1993 2.0% 2235 10-31-18
155 Illidan 1.9% 2237 10-31-18
156 Richied 1.8% 2239 10-31-18
157 gamer1245 1.7% 2242 10-31-18
158 DanielTheFalcon 1.7% 2243 10-31-18
159 Iwannabelink 1.6% 2244 10-31-18
160 niscool 1.4% 2250 10-31-18
160 oTaiIilLsS 1.4% 2250 10-31-18
160 soniccoloursunleashed 1.4% 2250 10-31-18
163 Redd 1.1% 2256 10-31-18
164 ieatatsonic 1.0% 2258 10-31-18
165 LinksDarkArrows 0.8% 2262 10-31-18
166 Lil_Dude 0.8% 2263 10-31-18
167 Cbwade15 0.5% 2270 10-31-18
168 neaolas 0.3% 2274 10-31-18
169 BlankTH 0.2% 2277 10-31-18
170 Heroes_Hater 0.1% 2278 10-31-18
171 S-MS32X-S 0.0% 2280 10-31-18
172 KaM Mark MaK 0.0% 2282 10-31-18
172 MegabombBlade 0.0% 2282 10-31-18

This page is using the New Data Table System. [FUTURE]

Game ID: 3 | Category ID: 6
Hits: 5,003 | Hits This Month: 17 | DB Calls: 24 | Mem Usage: 5.77 MB | Time: 0.08s | Printable

The Sonic Center v3.9
Copyright 2003-2011 by The Sonic Center Team.